sensor_id;sensor_type;location;lat;lon;timestamp;P1;durP1;ratioP1;P2;durP2;ratioP2
64520;SDS011;50896;46.714;17.322;2023-07-30T00:03:13;0.88;;;0.70;;
64520;SDS011;50896;46.714;17.322;2023-07-30T00:05:41;2.00;;;0.70;;
64520;SDS011;50896;46.714;17.322;2023-07-30T00:08:15;0.65;;;0.65;;
64520;SDS011;50896;46.714;17.322;2023-07-30T00:10:43;1.03;;;0.73;;
64520;SDS011;50896;46.714;17.322;2023-07-30T00:13:14;1.88;;;0.68;;
64520;SDS011;50896;46.714;17.322;2023-07-30T00:15:49;0.60;;;0.60;;
64520;SDS011;50896;46.714;17.322;2023-07-30T00:18:18;1.73;;;0.70;;
64520;SDS011;50896;46.714;17.322;2023-07-30T00:20:51;1.93;;;0.80;;
64520;SDS011;50896;46.714;17.322;2023-07-30T00:23:24;1.27;;;1.00;;
64520;SDS011;50896;46.714;17.322;2023-07-30T00:25:52;2.38;;;0.98;;
64520;SDS011;50896;46.714;17.322;2023-07-30T00:28:28;1.27;;;0.90;;
64520;SDS011;50896;46.714;17.322;2023-07-30T00:31:00;1.45;;;1.20;;
64520;SDS011;50896;46.714;17.322;2023-07-30T00:33:29;1.90;;;1.20;;
64520;SDS011;50896;46.714;17.322;2023-07-30T00:36:10;2.75;;;1.10;;
64520;SDS011;50896;46.714;17.322;2023-07-30T00:38:43;1.73;;;1.38;;
64520;SDS011;50896;46.714;17.322;2023-07-30T00:41:40;1.77;;;1.38;;
64520;SDS011;50896;46.714;17.322;2023-07-30T00:44:10;2.60;;;1.25;;
64520;SDS011;50896;46.714;17.322;2023-07-30T00:46:39;1.50;;;1.27;;
64520;SDS011;50896;46.714;17.322;2023-07-30T00:49:13;2.28;;;1.58;;
64520;SDS011;50896;46.714;17.322;2023-07-30T00:51:45;5.35;;;1.40;;
64520;SDS011;50896;46.714;17.322;2023-07-30T00:54:20;1.73;;;1.40;;
64520;SDS011;50896;46.714;17.322;2023-07-30T00:56:57;1.75;;;1.50;;
64520;SDS011;50896;46.714;17.322;2023-07-30T00:59:27;1.92;;;1.58;;
64520;SDS011;50896;46.714;17.322;2023-07-30T01:02:03;1.45;;;1.30;;
64520;SDS011;50896;46.714;17.322;2023-07-30T01:04:40;1.92;;;1.50;;
64520;SDS011;50896;46.714;17.322;2023-07-30T01:07:09;1.88;;;1.50;;
64520;SDS011;50896;46.714;17.322;2023-07-30T01:09:40;3.30;;;1.25;;
64520;SDS011;50896;46.714;17.322;2023-07-30T01:12:11;1.90;;;1.30;;
64520;SDS011;50896;46.714;17.322;2023-07-30T01:14:53;1.77;;;1.30;;
64520;SDS011;50896;46.714;17.322;2023-07-30T01:17:28;1.60;;;1.48;;
64520;SDS011;50896;46.714;17.322;2023-07-30T01:20:02;2.30;;;1.40;;
64520;SDS011;50896;46.714;17.322;2023-07-30T01:22:41;1.63;;;1.50;;
64520;SDS011;50896;46.714;17.322;2023-07-30T01:25:13;1.50;;;1.40;;
64520;SDS011;50896;46.714;17.322;2023-07-30T01:27:50;1.38;;;1.27;;
64520;SDS011;50896;46.714;17.322;2023-07-30T01:30:25;2.13;;;1.40;;
64520;SDS011;50896;46.714;17.322;2023-07-30T01:33:18;1.52;;;1.35;;
64520;SDS011;50896;46.714;17.322;2023-07-30T01:35:51;3.15;;;1.50;;
64520;SDS011;50896;46.714;17.322;2023-07-30T01:38:21;1.33;;;1.23;;
64520;SDS011;50896;46.714;17.322;2023-07-30T01:40:49;2.60;;;1.35;;
64520;SDS011;50896;46.714;17.322;2023-07-30T01:43:31;1.65;;;1.20;;
64520;SDS011;50896;46.714;17.322;2023-07-30T01:46:06;2.75;;;1.20;;
64520;SDS011;50896;46.714;17.322;2023-07-30T01:48:34;2.08;;;1.40;;
64520;SDS011;50896;46.714;17.322;2023-07-30T01:51:03;1.65;;;1.50;;
64520;SDS011;50896;46.714;17.322;2023-07-30T01:53:34;1.90;;;1.35;;
64520;SDS011;50896;46.714;17.322;2023-07-30T01:56:07;2.95;;;1.27;;
64520;SDS011;50896;46.714;17.322;2023-07-30T01:58:36;2.20;;;1.40;;
64520;SDS011;50896;46.714;17.322;2023-07-30T02:01:19;2.45;;;1.40;;
64520;SDS011;50896;46.714;17.322;2023-07-30T02:04:11;1.42;;;1.15;;
64520;SDS011;50896;46.714;17.322;2023-07-30T02:06:41;1.70;;;0.98;;
64520;SDS011;50896;46.714;17.322;2023-07-30T02:09:31;1.23;;;1.13;;
64520;SDS011;50896;46.714;17.322;2023-07-30T02:12:05;1.73;;;1.30;;
64520;SDS011;50896;46.714;17.322;2023-07-30T02:14:33;1.37;;;1.23;;
64520;SDS011;50896;46.714;17.322;2023-07-30T02:20:04;1.25;;;1.10;;
64520;SDS011;50896;46.714;17.322;2023-07-30T02:22:36;1.60;;;1.17;;
64520;SDS011;50896;46.714;17.322;2023-07-30T02:25:08;3.00;;;1.20;;
64520;SDS011;50896;46.714;17.322;2023-07-30T02:28:02;1.67;;;1.30;;
64520;SDS011;50896;46.714;17.322;2023-07-30T02:30:46;3.67;;;1.13;;
64520;SDS011;50896;46.714;17.322;2023-07-30T02:33:24;1.20;;;1.10;;
64520;SDS011;50896;46.714;17.322;2023-07-30T02:35:54;1.35;;;1.00;;
64520;SDS011;50896;46.714;17.322;2023-07-30T02:38:25;3.40;;;1.20;;
64520;SDS011;50896;46.714;17.322;2023-07-30T02:43:49;3.38;;;1.20;;
64520;SDS011;50896;46.714;17.322;2023-07-30T02:46:21;1.63;;;1.40;;
64520;SDS011;50896;46.714;17.322;2023-07-30T02:51:28;1.75;;;1.25;;
64520;SDS011;50896;46.714;17.322;2023-07-30T02:54:05;3.08;;;1.27;;
64520;SDS011;50896;46.714;17.322;2023-07-30T02:56:37;1.58;;;1.30;;
64520;SDS011;50896;46.714;17.322;2023-07-30T02:59:17;1.60;;;1.40;;
64520;SDS011;50896;46.714;17.322;2023-07-30T03:01:46;1.70;;;1.40;;
64520;SDS011;50896;46.714;17.322;2023-07-30T03:04:18;2.15;;;1.40;;
64520;SDS011;50896;46.714;17.322;2023-07-30T03:06:54;1.92;;;1.30;;
64520;SDS011;50896;46.714;17.322;2023-07-30T03:09:31;2.63;;;1.05;;
64520;SDS011;50896;46.714;17.322;2023-07-30T03:12:01;4.43;;;1.58;;
64520;SDS011;50896;46.714;17.322;2023-07-30T03:14:45;1.75;;;1.20;;
64520;SDS011;50896;46.714;17.322;2023-07-30T03:17:20;1.85;;;1.05;;
64520;SDS011;50896;46.714;17.322;2023-07-30T03:19:51;2.35;;;1.17;;
64520;SDS011;50896;46.714;17.322;2023-07-30T03:22:20;1.50;;;1.20;;
64520;SDS011;50896;46.714;17.322;2023-07-30T03:24:49;1.67;;;1.20;;
64520;SDS011;50896;46.714;17.322;2023-07-30T03:27:23;3.17;;;1.33;;
64520;SDS011;50896;46.714;17.322;2023-07-30T03:29:57;3.47;;;1.30;;
64520;SDS011;50896;46.714;17.322;2023-07-30T03:32:27;2.13;;;1.20;;
64520;SDS011;50896;46.714;17.322;2023-07-30T03:34:57;1.73;;;1.30;;
64520;SDS011;50896;46.714;17.322;2023-07-30T03:37:29;1.40;;;1.30;;
64520;SDS011;50896;46.714;17.322;2023-07-30T03:40:08;1.85;;;1.25;;
64520;SDS011;50896;46.714;17.322;2023-07-30T03:42:43;2.45;;;1.38;;
64520;SDS011;50896;46.714;17.322;2023-07-30T03:45:12;2.17;;;1.40;;
64520;SDS011;50896;46.714;17.322;2023-07-30T03:47:40;2.53;;;1.40;;
64520;SDS011;50896;46.714;17.322;2023-07-30T03:50:08;3.85;;;1.40;;
64520;SDS011;50896;46.714;17.322;2023-07-30T03:52:50;2.90;;;1.67;;
64520;SDS011;50896;46.714;17.322;2023-07-30T03:55:18;1.40;;;1.30;;
64520;SDS011;50896;46.714;17.322;2023-07-30T03:57:48;1.40;;;1.30;;
64520;SDS011;50896;46.714;17.322;2023-07-30T04:00:18;2.17;;;1.15;;
64520;SDS011;50896;46.714;17.322;2023-07-30T04:02:52;2.17;;;1.23;;
64520;SDS011;50896;46.714;17.322;2023-07-30T04:05:21;1.23;;;0.90;;
64520;SDS011;50896;46.714;17.322;2023-07-30T04:07:53;2.17;;;1.27;;
64520;SDS011;50896;46.714;17.322;2023-07-30T04:10:28;1.50;;;1.30;;
64520;SDS011;50896;46.714;17.322;2023-07-30T04:12:59;3.92;;;1.35;;
64520;SDS011;50896;46.714;17.322;2023-07-30T04:15:30;2.65;;;1.10;;
64520;SDS011;50896;46.714;17.322;2023-07-30T04:18:00;1.90;;;0.90;;
64520;SDS011;50896;46.714;17.322;2023-07-30T04:20:31;0.95;;;0.90;;
64520;SDS011;50896;46.714;17.322;2023-07-30T04:23:02;2.78;;;1.20;;
64520;SDS011;50896;46.714;17.322;2023-07-30T04:25:35;2.20;;;0.98;;
64520;SDS011;50896;46.714;17.322;2023-07-30T04:28:09;2.22;;;1.42;;
64520;SDS011;50896;46.714;17.322;2023-07-30T04:30:43;2.22;;;1.50;;
64520;SDS011;50896;46.714;17.322;2023-07-30T04:33:14;2.40;;;1.58;;
64520;SDS011;50896;46.714;17.322;2023-07-30T04:35:47;2.90;;;1.45;;
64520;SDS011;50896;46.714;17.322;2023-07-30T04:38:15;2.28;;;1.70;;
64520;SDS011;50896;46.714;17.322;2023-07-30T04:40:46;2.50;;;1.50;;
64520;SDS011;50896;46.714;17.322;2023-07-30T04:43:18;2.28;;;1.58;;
64520;SDS011;50896;46.714;17.322;2023-07-30T04:46:08;2.47;;;1.50;;
64520;SDS011;50896;46.714;17.322;2023-07-30T04:48:49;3.05;;;1.55;;
64520;SDS011;50896;46.714;17.322;2023-07-30T04:53:49;2.75;;;1.40;;
64520;SDS011;50896;46.714;17.322;2023-07-30T04:56:23;2.53;;;1.65;;
64520;SDS011;50896;46.714;17.322;2023-07-30T04:59:08;2.75;;;1.40;;
64520;SDS011;50896;46.714;17.322;2023-07-30T05:01:39;1.75;;;1.13;;
64520;SDS011;50896;46.714;17.322;2023-07-30T05:04:12;1.75;;;1.20;;
64520;SDS011;50896;46.714;17.322;2023-07-30T05:06:40;1.50;;;1.30;;
64520;SDS011;50896;46.714;17.322;2023-07-30T05:09:27;3.70;;;1.20;;
64520;SDS011;50896;46.714;17.322;2023-07-30T05:12:08;2.95;;;1.50;;
64520;SDS011;50896;46.714;17.322;2023-07-30T05:14:38;2.30;;;1.40;;
64520;SDS011;50896;46.714;17.322;2023-07-30T05:17:18;3.30;;;1.33;;
64520;SDS011;50896;46.714;17.322;2023-07-30T05:19:49;1.75;;;1.30;;
64520;SDS011;50896;46.714;17.322;2023-07-30T05:22:21;1.83;;;1.42;;
64520;SDS011;50896;46.714;17.322;2023-07-30T05:24:49;2.58;;;1.50;;
64520;SDS011;50896;46.714;17.322;2023-07-30T05:27:20;1.42;;;1.20;;
64520;SDS011;50896;46.714;17.322;2023-07-30T05:30:10;2.05;;;1.50;;
64520;SDS011;50896;46.714;17.322;2023-07-30T05:32:42;3.00;;;1.60;;
64520;SDS011;50896;46.714;17.322;2023-07-30T05:35:10;1.92;;;1.45;;
64520;SDS011;50896;46.714;17.322;2023-07-30T05:37:41;2.00;;;1.48;;
64520;SDS011;50896;46.714;17.322;2023-07-30T05:40:14;3.72;;;1.70;;
64520;SDS011;50896;46.714;17.322;2023-07-30T05:42:46;3.47;;;1.70;;
64520;SDS011;50896;46.714;17.322;2023-07-30T05:45:16;3.08;;;1.75;;
64520;SDS011;50896;46.714;17.322;2023-07-30T05:47:48;3.90;;;1.80;;
64520;SDS011;50896;46.714;17.322;2023-07-30T05:50:22;3.45;;;1.90;;
64520;SDS011;50896;46.714;17.322;2023-07-30T05:52:53;3.03;;;1.80;;
64520;SDS011;50896;46.714;17.322;2023-07-30T05:55:22;3.87;;;1.97;;
64520;SDS011;50896;46.714;17.322;2023-07-30T05:57:56;3.47;;;2.03;;
64520;SDS011;50896;46.714;17.322;2023-07-30T06:00:30;3.03;;;1.80;;
64520;SDS011;50896;46.714;17.322;2023-07-30T06:03:01;4.13;;;1.80;;
64520;SDS011;50896;46.714;17.322;2023-07-30T06:05:38;4.38;;;1.80;;
64520;SDS011;50896;46.714;17.322;2023-07-30T06:08:13;2.25;;;1.58;;
64520;SDS011;50896;46.714;17.322;2023-07-30T06:10:48;2.33;;;1.85;;
64520;SDS011;50896;46.714;17.322;2023-07-30T06:13:19;1.98;;;1.60;;
64520;SDS011;50896;46.714;17.322;2023-07-30T06:16:12;3.85;;;2.03;;
64520;SDS011;50896;46.714;17.322;2023-07-30T06:18:46;2.15;;;1.90;;
64520;SDS011;50896;46.714;17.322;2023-07-30T06:21:14;2.78;;;1.75;;
64520;SDS011;50896;46.714;17.322;2023-07-30T06:23:49;3.50;;;1.80;;
64520;SDS011;50896;46.714;17.322;2023-07-30T06:26:24;2.83;;;1.77;;
64520;SDS011;50896;46.714;17.322;2023-07-30T06:28:53;2.95;;;1.77;;
64520;SDS011;50896;46.714;17.322;2023-07-30T06:31:22;3.28;;;1.85;;
64520;SDS011;50896;46.714;17.322;2023-07-30T06:33:56;4.70;;;1.90;;
64520;SDS011;50896;46.714;17.322;2023-07-30T06:36:25;1.52;;;1.42;;
64520;SDS011;50896;46.714;17.322;2023-07-30T06:39:01;2.35;;;1.80;;
64520;SDS011;50896;46.714;17.322;2023-07-30T06:41:34;3.08;;;1.67;;
64520;SDS011;50896;46.714;17.322;2023-07-30T06:44:08;1.85;;;1.30;;
64520;SDS011;50896;46.714;17.322;2023-07-30T06:46:42;3.55;;;1.60;;
64520;SDS011;50896;46.714;17.322;2023-07-30T06:49:12;2.35;;;1.63;;
64520;SDS011;50896;46.714;17.322;2023-07-30T06:51:40;1.77;;;1.67;;
64520;SDS011;50896;46.714;17.322;2023-07-30T06:54:14;1.60;;;1.38;;
64520;SDS011;50896;46.714;17.322;2023-07-30T06:56:47;2.58;;;1.70;;
64520;SDS011;50896;46.714;17.322;2023-07-30T06:59:19;2.17;;;1.80;;
64520;SDS011;50896;46.714;17.322;2023-07-30T07:01:50;2.95;;;1.70;;
64520;SDS011;50896;46.714;17.322;2023-07-30T07:04:28;4.20;;;1.95;;
64520;SDS011;50896;46.714;17.322;2023-07-30T07:07:02;1.80;;;1.50;;
64520;SDS011;50896;46.714;17.322;2023-07-30T07:09:33;3.17;;;1.70;;
64520;SDS011;50896;46.714;17.322;2023-07-30T07:12:03;2.45;;;1.60;;
64520;SDS011;50896;46.714;17.322;2023-07-30T07:14:34;1.70;;;1.55;;
64520;SDS011;50896;46.714;17.322;2023-07-30T07:17:02;2.00;;;1.60;;
64520;SDS011;50896;46.714;17.322;2023-07-30T07:19:30;3.15;;;1.77;;
64520;SDS011;50896;46.714;17.322;2023-07-30T07:22:04;2.20;;;1.70;;
64520;SDS011;50896;46.714;17.322;2023-07-30T07:24:33;3.67;;;1.80;;
64520;SDS011;50896;46.714;17.322;2023-07-30T07:27:06;2.88;;;2.00;;
64520;SDS011;50896;46.714;17.322;2023-07-30T07:29:40;3.85;;;1.77;;
64520;SDS011;50896;46.714;17.322;2023-07-30T07:32:09;2.55;;;2.00;;
64520;SDS011;50896;46.714;17.322;2023-07-30T07:34:40;4.68;;;1.98;;
64520;SDS011;50896;46.714;17.322;2023-07-30T07:37:14;1.90;;;1.70;;
64520;SDS011;50896;46.714;17.322;2023-07-30T07:39:45;5.72;;;2.45;;
64520;SDS011;50896;46.714;17.322;2023-07-30T07:42:24;4.43;;;2.50;;
64520;SDS011;50896;46.714;17.322;2023-07-30T07:44:53;4.18;;;2.40;;
64520;SDS011;50896;46.714;17.322;2023-07-30T07:47:25;3.35;;;2.05;;
64520;SDS011;50896;46.714;17.322;2023-07-30T07:50:03;2.03;;;1.65;;
64520;SDS011;50896;46.714;17.322;2023-07-30T07:52:39;3.47;;;2.40;;
64520;SDS011;50896;46.714;17.322;2023-07-30T07:55:09;4.80;;;2.42;;
64520;SDS011;50896;46.714;17.322;2023-07-30T07:57:40;4.68;;;2.40;;
64520;SDS011;50896;46.714;17.322;2023-07-30T08:00:32;3.67;;;2.00;;
64520;SDS011;50896;46.714;17.322;2023-07-30T08:03:11;6.50;;;2.17;;
64520;SDS011;50896;46.714;17.322;2023-07-30T08:05:39;4.88;;;2.33;;
64520;SDS011;50896;46.714;17.322;2023-07-30T08:08:08;3.63;;;2.33;;
64520;SDS011;50896;46.714;17.322;2023-07-30T08:10:40;4.43;;;2.08;;
64520;SDS011;50896;46.714;17.322;2023-07-30T08:13:30;3.03;;;1.90;;
64520;SDS011;50896;46.714;17.322;2023-07-30T08:16:10;3.20;;;1.75;;
64520;SDS011;50896;46.714;17.322;2023-07-30T08:18:38;3.03;;;1.70;;
64520;SDS011;50896;46.714;17.322;2023-07-30T08:21:24;3.22;;;1.85;;
64520;SDS011;50896;46.714;17.322;2023-07-30T08:23:53;3.53;;;1.63;;
64520;SDS011;50896;46.714;17.322;2023-07-30T08:26:27;2.35;;;1.65;;
64520;SDS011;50896;46.714;17.322;2023-07-30T08:28:56;1.70;;;1.60;;
64520;SDS011;50896;46.714;17.322;2023-07-30T08:31:24;2.35;;;1.80;;
64520;SDS011;50896;46.714;17.322;2023-07-30T08:33:59;2.15;;;1.60;;
64520;SDS011;50896;46.714;17.322;2023-07-30T08:36:28;2.03;;;1.83;;
64520;SDS011;50896;46.714;17.322;2023-07-30T08:39:02;3.17;;;1.80;;
64520;SDS011;50896;46.714;17.322;2023-07-30T08:46:47;2.30;;;1.73;;
64520;SDS011;50896;46.714;17.322;2023-07-30T08:49:21;2.83;;;1.80;;
64520;SDS011;50896;46.714;17.322;2023-07-30T08:51:52;3.03;;;1.80;;
64520;SDS011;50896;46.714;17.322;2023-07-30T08:54:38;2.17;;;1.80;;
64520;SDS011;50896;46.714;17.322;2023-07-30T08:57:36;2.80;;;1.80;;
64520;SDS011;50896;46.714;17.322;2023-07-30T09:00:10;2.17;;;1.80;;
64520;SDS011;50896;46.714;17.322;2023-07-30T09:02:54;3.75;;;2.13;;
64520;SDS011;50896;46.714;17.322;2023-07-30T09:05:31;2.75;;;2.17;;
64520;SDS011;50896;46.714;17.322;2023-07-30T09:08:15;3.15;;;2.20;;
64520;SDS011;50896;46.714;17.322;2023-07-30T09:11:08;4.25;;;2.15;;
64520;SDS011;50896;46.714;17.322;2023-07-30T09:13:39;4.57;;;2.20;;
64520;SDS011;50896;46.714;17.322;2023-07-30T09:16:11;3.05;;;2.13;;
64520;SDS011;50896;46.714;17.322;2023-07-30T09:18:45;3.05;;;2.40;;
64520;SDS011;50896;46.714;17.322;2023-07-30T09:21:30;3.90;;;2.70;;
64520;SDS011;50896;46.714;17.322;2023-07-30T09:24:07;3.78;;;2.60;;
64520;SDS011;50896;46.714;17.322;2023-07-30T09:26:46;2.92;;;2.40;;
64520;SDS011;50896;46.714;17.322;2023-07-30T09:29:25;2.65;;;2.13;;
64520;SDS011;50896;46.714;17.322;2023-07-30T09:31:56;2.22;;;1.98;;
64520;SDS011;50896;46.714;17.322;2023-07-30T09:34:29;3.15;;;2.00;;
64520;SDS011;50896;46.714;17.322;2023-07-30T09:36:59;4.07;;;2.25;;
64520;SDS011;50896;46.714;17.322;2023-07-30T09:39:38;2.58;;;1.83;;
64520;SDS011;50896;46.714;17.322;2023-07-30T09:42:06;3.50;;;1.83;;
64520;SDS011;50896;46.714;17.322;2023-07-30T09:44:35;2.83;;;2.30;;
64520;SDS011;50896;46.714;17.322;2023-07-30T09:47:09;6.03;;;2.63;;
64520;SDS011;50896;46.714;17.322;2023-07-30T09:49:43;3.50;;;2.42;;
64520;SDS011;50896;46.714;17.322;2023-07-30T09:52:12;3.65;;;2.10;;
64520;SDS011;50896;46.714;17.322;2023-07-30T09:54:48;3.83;;;2.55;;
64520;SDS011;50896;46.714;17.322;2023-07-30T09:57:27;4.15;;;3.05;;
64520;SDS011;50896;46.714;17.322;2023-07-30T09:59:59;4.38;;;2.80;;
64520;SDS011;50896;46.714;17.322;2023-07-30T10:02:36;2.97;;;2.25;;
64520;SDS011;50896;46.714;17.322;2023-07-30T10:05:13;2.88;;;2.40;;
64520;SDS011;50896;46.714;17.322;2023-07-30T10:07:52;3.47;;;2.78;;
64520;SDS011;50896;46.714;17.322;2023-07-30T10:10:24;4.05;;;2.58;;
64520;SDS011;50896;46.714;17.322;2023-07-30T10:12:59;3.47;;;2.53;;
64520;SDS011;50896;46.714;17.322;2023-07-30T10:15:39;3.03;;;2.30;;
64520;SDS011;50896;46.714;17.322;2023-07-30T10:18:08;3.22;;;2.35;;
64520;SDS011;50896;46.714;17.322;2023-07-30T10:20:41;3.95;;;2.30;;
64520;SDS011;50896;46.714;17.322;2023-07-30T10:23:19;3.03;;;2.03;;
64520;SDS011;50896;46.714;17.322;2023-07-30T10:25:49;2.45;;;1.75;;
64520;SDS011;50896;46.714;17.322;2023-07-30T10:31:01;2.17;;;1.90;;
64520;SDS011;50896;46.714;17.322;2023-07-30T10:33:54;5.22;;;2.40;;
64520;SDS011;50896;46.714;17.322;2023-07-30T10:39:19;2.38;;;2.17;;
64520;SDS011;50896;46.714;17.322;2023-07-30T10:41:54;2.03;;;1.83;;
64520;SDS011;50896;46.714;17.322;2023-07-30T10:44:33;3.92;;;2.15;;
64520;SDS011;50896;46.714;17.322;2023-07-30T10:47:03;2.72;;;2.08;;
64520;SDS011;50896;46.714;17.322;2023-07-30T10:49:37;3.45;;;1.92;;
64520;SDS011;50896;46.714;17.322;2023-07-30T10:52:29;2.10;;;1.90;;
64520;SDS011;50896;46.714;17.322;2023-07-30T10:55:01;3.13;;;1.85;;
64520;SDS011;50896;46.714;17.322;2023-07-30T10:57:33;2.17;;;1.98;;
64520;SDS011;50896;46.714;17.322;2023-07-30T11:00:10;2.28;;;2.08;;
64520;SDS011;50896;46.714;17.322;2023-07-30T11:02:41;3.35;;;1.73;;
64520;SDS011;50896;46.714;17.322;2023-07-30T11:05:13;2.10;;;1.90;;
64520;SDS011;50896;46.714;17.322;2023-07-30T11:07:49;2.97;;;1.80;;
64520;SDS011;50896;46.714;17.322;2023-07-30T11:10:19;2.13;;;1.90;;
64520;SDS011;50896;46.714;17.322;2023-07-30T11:12:48;3.33;;;2.10;;
64520;SDS011;50896;46.714;17.322;2023-07-30T11:15:19;3.28;;;1.85;;
64520;SDS011;50896;46.714;17.322;2023-07-30T11:17:55;1.95;;;1.77;;
64520;SDS011;50896;46.714;17.322;2023-07-30T11:20:28;2.15;;;1.80;;
64520;SDS011;50896;46.714;17.322;2023-07-30T11:23:16;2.35;;;1.60;;
64520;SDS011;50896;46.714;17.322;2023-07-30T11:25:50;5.00;;;1.70;;
64520;SDS011;50896;46.714;17.322;2023-07-30T11:28:27;2.38;;;1.63;;
64520;SDS011;50896;46.714;17.322;2023-07-30T11:31:07;2.60;;;1.45;;
64520;SDS011;50896;46.714;17.322;2023-07-30T11:33:42;2.08;;;1.70;;
64520;SDS011;50896;46.714;17.322;2023-07-30T11:36:16;2.22;;;1.70;;
64520;SDS011;50896;46.714;17.322;2023-07-30T11:38:57;2.80;;;2.00;;
64520;SDS011;50896;46.714;17.322;2023-07-30T11:41:30;2.10;;;1.90;;
64520;SDS011;50896;46.714;17.322;2023-07-30T11:47:11;2.30;;;1.80;;
64520;SDS011;50896;46.714;17.322;2023-07-30T11:50:19;2.00;;;1.70;;
64520;SDS011;50896;46.714;17.322;2023-07-30T11:52:52;2.15;;;1.65;;
64520;SDS011;50896;46.714;17.322;2023-07-30T11:55:27;1.73;;;1.60;;
64520;SDS011;50896;46.714;17.322;2023-07-30T11:58:11;1.60;;;1.20;;
64520;SDS011;50896;46.714;17.322;2023-07-30T12:00:48;1.45;;;1.25;;
64520;SDS011;50896;46.714;17.322;2023-07-30T12:03:15;1.50;;;1.38;;
64520;SDS011;50896;46.714;17.322;2023-07-30T12:05:48;1.50;;;1.40;;
64520;SDS011;50896;46.714;17.322;2023-07-30T12:08:18;1.30;;;1.00;;
64520;SDS011;50896;46.714;17.322;2023-07-30T12:10:57;1.63;;;1.50;;
64520;SDS011;50896;46.714;17.322;2023-07-30T12:13:32;1.63;;;1.50;;
64520;SDS011;50896;46.714;17.322;2023-07-30T12:16:13;2.20;;;1.30;;
64520;SDS011;50896;46.714;17.322;2023-07-30T12:18:47;1.73;;;1.30;;
64520;SDS011;50896;46.714;17.322;2023-07-30T12:21:14;1.67;;;1.40;;
64520;SDS011;50896;46.714;17.322;2023-07-30T12:23:42;1.85;;;1.40;;
64520;SDS011;50896;46.714;17.322;2023-07-30T12:26:11;1.33;;;1.23;;
64520;SDS011;50896;46.714;17.322;2023-07-30T12:28:39;1.40;;;1.30;;
64520;SDS011;50896;46.714;17.322;2023-07-30T12:31:11;4.00;;;1.63;;
64520;SDS011;50896;46.714;17.322;2023-07-30T12:33:40;1.95;;;1.35;;
64520;SDS011;50896;46.714;17.322;2023-07-30T12:36:18;2.20;;;1.50;;
64520;SDS011;50896;46.714;17.322;2023-07-30T12:38:58;1.90;;;1.40;;
64520;SDS011;50896;46.714;17.322;2023-07-30T12:41:36;1.55;;;1.45;;
64520;SDS011;50896;46.714;17.322;2023-07-30T12:44:07;1.65;;;1.55;;
64520;SDS011;50896;46.714;17.322;2023-07-30T12:46:36;1.50;;;1.40;;
64520;SDS011;50896;46.714;17.322;2023-07-30T12:49:07;1.75;;;1.38;;
64520;SDS011;50896;46.714;17.322;2023-07-30T12:51:35;2.47;;;2.28;;
64520;SDS011;50896;46.714;17.322;2023-07-30T12:54:08;1.70;;;1.60;;
64520;SDS011;50896;46.714;17.322;2023-07-30T12:56:50;2.75;;;1.45;;
64520;SDS011;50896;46.714;17.322;2023-07-30T12:59:21;1.98;;;1.73;;
64520;SDS011;50896;46.714;17.322;2023-07-30T13:01:48;1.60;;;1.50;;
64520;SDS011;50896;46.714;17.322;2023-07-30T13:04:49;2.25;;;1.50;;
64520;SDS011;50896;46.714;17.322;2023-07-30T13:07:18;1.50;;;1.40;;
64520;SDS011;50896;46.714;17.322;2023-07-30T13:09:47;3.63;;;1.58;;
64520;SDS011;50896;46.714;17.322;2023-07-30T13:12:33;1.58;;;1.38;;
64520;SDS011;50896;46.714;17.322;2023-07-30T13:15:06;1.90;;;1.38;;
64520;SDS011;50896;46.714;17.322;2023-07-30T13:17:37;1.67;;;1.23;;
64520;SDS011;50896;46.714;17.322;2023-07-30T13:20:08;2.90;;;1.45;;
64520;SDS011;50896;46.714;17.322;2023-07-30T13:22:37;1.95;;;1.48;;
64520;SDS011;50896;46.714;17.322;2023-07-30T13:25:07;2.78;;;1.60;;
64520;SDS011;50896;46.714;17.322;2023-07-30T13:27:38;1.90;;;1.50;;
64520;SDS011;50896;46.714;17.322;2023-07-30T13:30:16;3.10;;;1.30;;
64520;SDS011;50896;46.714;17.322;2023-07-30T13:32:54;1.60;;;1.50;;
64520;SDS011;50896;46.714;17.322;2023-07-30T13:35:23;1.45;;;1.27;;
64520;SDS011;50896;46.714;17.322;2023-07-30T13:37:50;1.67;;;1.58;;
64520;SDS011;50896;46.714;17.322;2023-07-30T13:40:19;1.65;;;1.50;;
64520;SDS011;50896;46.714;17.322;2023-07-30T13:42:51;1.63;;;1.48;;
64520;SDS011;50896;46.714;17.322;2023-07-30T13:45:22;1.58;;;1.48;;
64520;SDS011;50896;46.714;17.322;2023-07-30T13:47:56;2.17;;;1.70;;
64520;SDS011;50896;46.714;17.322;2023-07-30T13:50:35;4.13;;;1.42;;
64520;SDS011;50896;46.714;17.322;2023-07-30T13:53:04;7.25;;;1.60;;
64520;SDS011;50896;46.714;17.322;2023-07-30T13:55:39;1.67;;;1.30;;
64520;SDS011;50896;46.714;17.322;2023-07-30T13:58:09;2.25;;;1.40;;
64520;SDS011;50896;46.714;17.322;2023-07-30T14:00:50;1.75;;;1.50;;
64520;SDS011;50896;46.714;17.322;2023-07-30T14:03:23;1.42;;;1.33;;
64520;SDS011;50896;46.714;17.322;2023-07-30T14:05:56;1.58;;;1.45;;
64520;SDS011;50896;46.714;17.322;2023-07-30T14:08:24;2.38;;;1.42;;
64520;SDS011;50896;46.714;17.322;2023-07-30T14:10:54;1.90;;;1.70;;
64520;SDS011;50896;46.714;17.322;2023-07-30T14:13:23;1.63;;;1.50;;
64520;SDS011;50896;46.714;17.322;2023-07-30T14:16:01;1.90;;;1.30;;
64520;SDS011;50896;46.714;17.322;2023-07-30T14:18:31;1.80;;;1.42;;
64520;SDS011;50896;46.714;17.322;2023-07-30T14:21:13;2.17;;;1.50;;
64520;SDS011;50896;46.714;17.322;2023-07-30T14:23:44;1.67;;;1.20;;
64520;SDS011;50896;46.714;17.322;2023-07-30T14:26:16;2.03;;;1.60;;
64520;SDS011;50896;46.714;17.322;2023-07-30T14:28:52;3.13;;;1.60;;
64520;SDS011;50896;46.714;17.322;2023-07-30T14:31:39;1.33;;;1.10;;
64520;SDS011;50896;46.714;17.322;2023-07-30T14:34:12;3.08;;;1.20;;
64520;SDS011;50896;46.714;17.322;2023-07-30T14:37:03;1.20;;;1.10;;
64520;SDS011;50896;46.714;17.322;2023-07-30T14:39:40;1.38;;;1.25;;
64520;SDS011;50896;46.714;17.322;2023-07-30T14:42:12;1.65;;;1.20;;
64520;SDS011;50896;46.714;17.322;2023-07-30T14:44:47;1.35;;;1.25;;
64520;SDS011;50896;46.714;17.322;2023-07-30T14:47:27;2.13;;;1.35;;
64520;SDS011;50896;46.714;17.322;2023-07-30T14:50:03;2.15;;;1.23;;
64520;SDS011;50896;46.714;17.322;2023-07-30T14:52:59;2.13;;;1.50;;
64520;SDS011;50896;46.714;17.322;2023-07-30T14:55:32;2.47;;;1.10;;
64520;SDS011;50896;46.714;17.322;2023-07-30T14:58:02;1.83;;;1.70;;
64520;SDS011;50896;46.714;17.322;2023-07-30T15:00:35;1.17;;;1.08;;
64520;SDS011;50896;46.714;17.322;2023-07-30T15:03:05;1.10;;;0.93;;
64520;SDS011;50896;46.714;17.322;2023-07-30T15:05:35;2.30;;;1.13;;
64520;SDS011;50896;46.714;17.322;2023-07-30T15:08:05;1.40;;;1.30;;
64520;SDS011;50896;46.714;17.322;2023-07-30T15:10:34;1.05;;;0.95;;
64520;SDS011;50896;46.714;17.322;2023-07-30T15:13:05;1.30;;;1.20;;
64520;SDS011;50896;46.714;17.322;2023-07-30T15:16:00;1.35;;;1.20;;
64520;SDS011;50896;46.714;17.322;2023-07-30T15:18:34;4.20;;;1.20;;
64520;SDS011;50896;46.714;17.322;2023-07-30T15:21:06;1.67;;;1.10;;
64520;SDS011;50896;46.714;17.322;2023-07-30T15:23:42;1.65;;;1.30;;
64520;SDS011;50896;46.714;17.322;2023-07-30T15:26:33;1.90;;;1.35;;
64520;SDS011;50896;46.714;17.322;2023-07-30T15:29:25;1.20;;;1.10;;
64520;SDS011;50896;46.714;17.322;2023-07-30T15:32:04;1.20;;;1.10;;
64520;SDS011;50896;46.714;17.322;2023-07-30T15:34:46;1.20;;;1.02;;
64520;SDS011;50896;46.714;17.322;2023-07-30T15:37:21;1.30;;;1.00;;
64520;SDS011;50896;46.714;17.322;2023-07-30T15:39:55;0.93;;;0.93;;
64520;SDS011;50896;46.714;17.322;2023-07-30T15:42:31;2.22;;;1.27;;